createdAt,value
2023-04-06T00:00:35.393Z,69.67
2023-04-06T00:03:05.617Z,69.21
2023-04-06T00:05:32.435Z,69.22
2023-04-06T00:07:59.402Z,69.15
2023-04-06T00:10:26.404Z,68.65
2023-04-06T00:12:53.767Z,68.42
2023-04-06T00:15:21.231Z,68.17
2023-04-06T00:17:47.799Z,68.12
2023-04-06T00:20:14.641Z,67.17
2023-04-06T00:22:41.521Z,66.49
2023-04-06T00:25:08.505Z,66.46
2023-04-06T00:27:35.064Z,66.61
2023-04-06T00:30:01.686Z,66.51
2023-04-06T00:32:28.806Z,66.38
2023-04-06T00:34:57.591Z,66.28
2023-04-06T00:37:24.155Z,65.74
2023-04-06T00:39:53.390Z,66.16
2023-04-06T00:42:30.496Z,65.64
2023-04-06T00:44:59.535Z,66.02
2023-04-06T00:47:27.002Z,65.92
2023-04-06T00:49:54.917Z,66.58
2023-04-06T00:52:21.851Z,67.06
2023-04-06T00:54:48.466Z,67.27
2023-04-06T00:57:19.059Z,66.86
2023-04-06T00:59:45.721Z,66.37
2023-04-06T01:02:19.432Z,66.32
2023-04-06T01:04:46.208Z,65.62
2023-04-06T01:07:12.703Z,65.95
2023-04-06T01:09:42.068Z,65.77
2023-04-06T01:12:08.739Z,65.59
2023-04-06T01:14:35.689Z,65.59
2023-04-06T01:17:08.177Z,65.35
2023-04-06T01:19:35.409Z,65.53
2023-04-06T01:22:07.324Z,65.82
2023-04-06T01:24:40.251Z,65.35
2023-04-06T01:27:06.781Z,65.37
2023-04-06T01:29:33.405Z,64.96
2023-04-06T01:31:59.959Z,64.90
2023-04-06T01:34:27.122Z,64.57
2023-04-06T01:36:53.627Z,65.31
2023-04-06T01:39:20.728Z,64.88
2023-04-06T01:41:50.161Z,65.02
2023-04-06T01:44:20.473Z,65.03
2023-04-06T01:46:47.067Z,64.72
2023-04-06T01:49:14.075Z,65.03
2023-04-06T01:51:41.021Z,65.30
2023-04-06T01:54:07.581Z,64.46
2023-04-06T01:56:34.255Z,65.00
2023-04-06T01:59:00.855Z,64.44
2023-04-06T02:01:27.483Z,64.87
2023-04-06T02:03:54.144Z,65.15
2023-04-06T02:06:20.863Z,64.98
2023-04-06T02:08:47.337Z,65.16
2023-04-06T02:11:13.922Z,65.09
2023-04-06T02:13:40.647Z,64.97
2023-04-06T02:16:07.546Z,64.89
2023-04-06T02:18:34.170Z,67.09
2023-04-06T02:21:01.648Z,68.49
2023-04-06T02:23:28.216Z,69.01
2023-04-06T02:25:54.764Z,69.16
2023-04-06T02:28:21.257Z,69.14
2023-04-06T02:30:47.838Z,69.59
2023-04-06T02:33:14.363Z,70.14
2023-04-06T02:35:40.987Z,69.85
2023-04-06T02:38:07.582Z,70.09
2023-04-06T02:40:34.122Z,70.63
2023-04-06T02:43:00.972Z,71.44
2023-04-06T02:45:27.489Z,71.26
2023-04-06T02:47:54.017Z,71.51
2023-04-06T02:50:20.627Z,71.25
2023-04-06T02:52:47.193Z,71.45
2023-04-06T02:55:13.740Z,71.82
2023-04-06T02:57:40.338Z,71.85
2023-04-06T03:00:07.774Z,72.38
2023-04-06T03:02:34.402Z,72.99
2023-04-06T03:05:01.032Z,73.16
2023-04-06T03:07:27.565Z,72.10
2023-04-06T03:09:54.059Z,72.55
2023-04-06T03:12:20.900Z,72.49
2023-04-06T03:14:47.411Z,73.22
2023-04-06T03:17:14.041Z,73.42
2023-04-06T03:19:40.608Z,73.92
2023-04-06T03:22:07.125Z,73.56
2023-04-06T03:24:33.912Z,73.58
2023-04-06T03:27:01.412Z,73.54
2023-04-06T03:29:28.162Z,73.95
2023-04-06T03:31:54.839Z,73.87
2023-04-06T03:34:21.550Z,73.81
2023-04-06T03:36:51.662Z,73.82
2023-04-06T03:39:26.546Z,74.32
2023-04-06T03:41:53.195Z,74.07
2023-04-06T03:44:19.753Z,74.55
2023-04-06T03:46:49.379Z,75.46
2023-04-06T03:49:16.097Z,75.73
2023-04-06T03:51:42.622Z,75.32
2023-04-06T03:54:09.144Z,75.17
2023-04-06T03:56:35.752Z,75.48
2023-04-06T03:59:02.993Z,75.58
2023-04-06T04:01:29.929Z,75.37
2023-04-06T04:03:56.742Z,75.44
2023-04-06T04:06:23.395Z,75.51
2023-04-06T04:08:51.122Z,75.21
2023-04-06T04:11:17.888Z,75.97
2023-04-06T04:13:44.838Z,75.86
2023-04-06T04:16:11.396Z,75.97
2023-04-06T04:18:38.014Z,76.01
2023-04-06T04:21:04.682Z,76.01
2023-04-06T04:23:31.222Z,76.95
2023-04-06T04:25:58.637Z,76.87
2023-04-06T04:28:25.393Z,76.86
2023-04-06T04:30:51.917Z,76.48
2023-04-06T04:33:18.466Z,76.92
2023-04-06T04:35:45.028Z,76.66
2023-04-06T04:38:11.618Z,76.67
2023-04-06T04:40:38.261Z,76.54
2023-04-06T04:43:04.803Z,76.37
2023-04-06T04:45:31.410Z,76.26
2023-04-06T04:47:58.017Z,76.96
2023-04-06T04:50:24.613Z,77.60
2023-04-06T04:52:51.838Z,77.61
2023-04-06T04:55:18.670Z,77.02
2023-04-06T04:57:47.161Z,76.54
2023-04-06T05:00:14.155Z,76.53
2023-04-06T05:02:41.013Z,76.63
2023-04-06T05:05:08.392Z,76.88
2023-04-06T05:07:35.047Z,76.69
2023-04-06T05:10:01.637Z,76.79
2023-04-06T05:12:31.269Z,76.92
2023-04-06T05:14:57.941Z,77.11
2023-04-06T05:17:24.525Z,76.72
2023-04-06T05:19:51.235Z,76.96
2023-04-06T05:22:18.642Z,76.33
2023-04-06T05:24:45.573Z,75.85
2023-04-06T05:27:12.142Z,75.79
2023-04-06T05:29:38.711Z,76.12
2023-04-06T05:32:05.961Z,75.22
2023-04-06T05:34:32.530Z,74.69
2023-04-06T05:36:59.072Z,74.76
2023-04-06T05:39:25.769Z,74.74
2023-04-06T05:41:52.275Z,75.01
2023-04-06T05:44:21.562Z,75.33
2023-04-06T05:46:48.143Z,75.47
2023-04-06T05:49:14.768Z,74.47
2023-04-06T05:51:41.327Z,73.42
2023-04-06T05:54:07.954Z,74.24
2023-04-06T05:56:34.446Z,74.88
2023-04-06T05:59:01.182Z,75.50
2023-04-06T06:01:27.689Z,74.56
2023-04-06T06:03:54.229Z,75.18
2023-04-06T06:06:20.752Z,75.19
2023-04-06T06:08:47.283Z,74.41
2023-04-06T06:11:13.806Z,74.21
2023-04-06T06:13:40.459Z,73.45
2023-04-06T06:16:07.319Z,72.96
2023-04-06T06:18:33.905Z,71.16
2023-04-06T06:21:01.182Z,69.72
2023-04-06T06:23:30.339Z,68.25
2023-04-06T06:25:59.117Z,67.35
2023-04-06T06:28:26.359Z,66.68
2023-04-06T06:30:53.112Z,66.19
2023-04-06T06:33:22.543Z,65.78
2023-04-06T06:35:49.389Z,65.22
2023-04-06T06:38:15.972Z,64.76
2023-04-06T06:40:42.588Z,64.34
2023-04-06T06:43:09.096Z,64.19
2023-04-06T06:45:35.993Z,63.58
2023-04-06T06:48:02.662Z,63.25
2023-04-06T06:50:29.744Z,63.02
2023-04-06T06:52:56.381Z,63.92
2023-04-06T06:55:22.998Z,64.22
2023-04-06T06:57:49.548Z,64.37
2023-04-06T07:00:16.366Z,64.39
2023-04-06T07:02:43.052Z,64.36
2023-04-06T07:05:23.823Z,64.25
2023-04-06T07:07:54.203Z,63.93
2023-04-06T07:10:21.312Z,64.16
2023-04-06T07:12:47.885Z,63.58
2023-04-06T07:15:14.581Z,63.18
2023-04-06T07:17:46.189Z,62.46
2023-04-06T07:20:13.675Z,61.50
2023-04-06T07:22:41.505Z,61.72
2023-04-06T07:25:08.525Z,60.84
2023-04-06T07:27:37.743Z,60.30
2023-04-06T07:30:04.522Z,60.15
2023-04-06T07:32:31.615Z,60.75
2023-04-06T07:34:59.192Z,64.24
2023-04-06T07:37:26.122Z,64.74
2023-04-06T07:39:52.640Z,62.71
2023-04-06T07:42:19.168Z,63.52
2023-04-06T07:44:49.359Z,62.94
2023-04-06T07:47:16.086Z,62.49
2023-04-06T07:49:42.615Z,62.12
2023-04-06T07:52:09.096Z,61.38
2023-04-06T07:54:35.636Z,61.72
2023-04-06T07:57:02.134Z,60.98
2023-04-06T07:59:28.726Z,61.72
2023-04-06T08:01:55.466Z,63.10
2023-04-06T08:04:22.008Z,61.62
2023-04-06T08:06:48.548Z,62.32
2023-04-06T08:09:15.114Z,61.28
2023-04-06T08:11:41.634Z,60.96
2023-04-06T08:14:08.785Z,60.83
2023-04-06T08:16:35.647Z,59.72
2023-04-06T08:19:02.239Z,60.10
2023-04-06T08:21:28.734Z,59.83
2023-04-06T08:23:55.299Z,60.26
2023-04-06T08:26:21.927Z,59.62
2023-04-06T08:28:48.529Z,62.43
2023-04-06T08:31:15.098Z,60.55
2023-04-06T08:33:41.779Z,57.67
2023-04-06T08:36:13.405Z,56.28
2023-04-06T08:38:41.086Z,59.22
2023-04-06T08:41:09.598Z,59.02
2023-04-06T08:43:48.239Z,57.24
2023-04-06T08:46:21.174Z,58.71
2023-04-06T08:48:50.910Z,56.26
2023-04-06T08:51:19.660Z,54.61
2023-04-06T08:53:47.344Z,54.45
2023-04-06T08:56:14.097Z,56.15
2023-04-06T08:58:41.523Z,55.12
2023-04-06T09:01:10.339Z,51.18
2023-04-06T09:03:41.906Z,49.82
2023-04-06T09:06:10.435Z,50.15
2023-04-06T09:08:41.779Z,49.50
2023-04-06T09:11:09.702Z,48.05
2023-04-06T09:14:08.678Z,46.90
2023-04-06T09:16:46.556Z,48.17
2023-04-06T09:19:13.629Z,47.55
2023-04-06T09:21:41.096Z,47.23
2023-04-06T09:24:09.047Z,47.05
2023-04-06T09:26:47.056Z,46.58
2023-04-06T09:29:25.272Z,45.15
2023-04-06T09:31:51.867Z,45.20
2023-04-06T09:34:23.371Z,46.08
2023-04-06T09:36:49.894Z,46.48
2023-04-06T09:39:16.392Z,45.63
2023-04-06T09:41:42.904Z,45.12
2023-04-06T09:44:15.428Z,44.92
2023-04-06T09:46:59.598Z,45.01
2023-04-06T09:49:32.401Z,44.60
2023-04-06T09:52:05.556Z,44.14
2023-04-06T09:54:33.163Z,43.85
2023-04-06T09:57:40.745Z,44.43
2023-04-06T10:00:15.515Z,45.03
2023-04-06T10:02:57.512Z,44.63
2023-04-06T10:05:30.722Z,45.44
2023-04-06T10:08:02.054Z,44.00
2023-04-06T10:10:29.429Z,43.01
2023-04-06T10:12:56.851Z,43.20
2023-04-06T10:15:23.525Z,43.44
2023-04-06T10:17:50.315Z,42.84
2023-04-06T10:20:41.023Z,42.94
2023-04-06T10:23:10.978Z,42.33
2023-04-06T10:25:38.749Z,42.04
2023-04-06T10:28:09.947Z,41.01
2023-04-06T10:30:44.647Z,41.79
2023-04-06T10:33:19.232Z,42.16
2023-04-06T10:35:46.028Z,43.07
2023-04-06T10:38:15.028Z,42.34
2023-04-06T10:40:48.038Z,42.84
2023-04-06T10:43:24.289Z,42.55
2023-04-06T10:45:58.509Z,43.08
2023-04-06T10:48:26.433Z,42.31
2023-04-06T10:50:53.960Z,41.97
2023-04-06T10:53:25.363Z,42.67
2023-04-06T10:55:53.316Z,42.59
2023-04-06T10:58:20.326Z,41.92
2023-04-06T11:00:51.425Z,42.53
2023-04-06T11:03:19.172Z,42.21
2023-04-06T11:05:48.191Z,40.70
2023-04-06T11:08:34.350Z,42.13
2023-04-06T11:11:07.493Z,41.31
2023-04-06T11:13:45.124Z,41.30
2023-04-06T11:16:18.517Z,41.16
2023-04-06T11:18:49.921Z,41.33
2023-04-06T11:21:16.525Z,40.38
2023-04-06T11:23:43.023Z,40.38
2023-04-06T11:26:14.930Z,40.46
2023-04-06T11:28:44.110Z,40.82
2023-04-06T11:31:12.496Z,40.67
2023-04-06T11:33:39.756Z,41.16
2023-04-06T11:36:07.274Z,40.13
2023-04-06T11:38:34.536Z,39.95
2023-04-06T11:41:02.491Z,38.57
2023-04-06T11:43:32.367Z,39.06
2023-04-06T11:46:06.241Z,38.85
2023-04-06T11:48:32.912Z,39.39
2023-04-06T11:51:02.060Z,39.86
2023-04-06T11:53:29.983Z,38.25
2023-04-06T11:55:57.258Z,38.66
2023-04-06T11:58:23.871Z,39.74
2023-04-06T12:00:50.468Z,40.18
2023-04-06T12:03:17.162Z,39.90
2023-04-06T12:05:44.923Z,39.93
2023-04-06T12:08:11.517Z,39.98
2023-04-06T12:10:38.062Z,39.91
2023-04-06T12:13:05.533Z,39.89
2023-04-06T12:15:32.211Z,38.44
2023-04-06T12:17:58.784Z,40.40
2023-04-06T12:20:27.201Z,40.52
2023-04-06T12:22:54.337Z,40.50
2023-04-06T12:25:21.011Z,40.30
2023-04-06T12:27:48.101Z,40.23
2023-04-06T12:30:15.314Z,39.48
2023-04-06T12:32:42.283Z,39.50
2023-04-06T12:35:10.195Z,39.85
2023-04-06T12:37:37.781Z,38.37
2023-04-06T12:40:05.209Z,39.71
2023-04-06T12:42:31.893Z,38.76
2023-04-06T12:44:58.405Z,39.53
2023-04-06T12:47:27.273Z,40.24
2023-04-06T12:49:55.007Z,39.98
2023-04-06T12:52:21.732Z,39.63
2023-04-06T12:54:50.142Z,39.97
2023-04-06T12:57:18.128Z,39.51
2023-04-06T12:59:45.738Z,40.01
2023-04-06T13:02:12.664Z,39.48
2023-04-06T13:04:39.290Z,38.70
2023-04-06T13:07:06.090Z,38.48
2023-04-06T13:09:32.615Z,37.81
2023-04-06T13:11:59.111Z,38.90
2023-04-06T13:14:26.168Z,39.14
2023-04-06T13:16:52.881Z,39.53
2023-04-06T13:19:19.536Z,39.61
2023-04-06T13:21:46.375Z,38.86
2023-04-06T13:24:13.731Z,38.94
2023-04-06T13:26:41.106Z,38.99
2023-04-06T13:29:07.652Z,37.84
2023-04-06T13:31:34.258Z,38.39
2023-04-06T13:34:00.842Z,39.49
2023-04-06T13:36:27.972Z,39.23
2023-04-06T13:38:56.242Z,39.92
2023-04-06T13:41:24.528Z,40.24
2023-04-06T13:43:54.452Z,40.35
2023-04-06T13:46:21.337Z,40.52
2023-04-06T13:48:48.166Z,40.72
2023-04-06T13:51:15.961Z,40.82
2023-04-06T13:53:42.438Z,39.59
2023-04-06T13:56:11.824Z,40.54
2023-04-06T13:58:38.319Z,39.76
2023-04-06T14:01:07.322Z,38.17
2023-04-06T14:03:34.771Z,38.49
2023-04-06T14:06:05.041Z,39.58
2023-04-06T14:08:36.029Z,40.30
2023-04-06T14:11:02.530Z,40.46
2023-04-06T14:13:29.032Z,40.29
2023-04-06T14:15:56.485Z,40.28
2023-04-06T14:18:25.829Z,38.94
2023-04-06T14:20:56.967Z,39.11
2023-04-06T14:23:23.592Z,40.16
2023-04-06T14:25:50.054Z,39.83
2023-04-06T14:28:17.365Z,39.10
2023-04-06T14:30:44.639Z,39.96
2023-04-06T14:33:12.213Z,39.42
2023-04-06T14:35:41.494Z,39.42
2023-04-06T14:38:07.985Z,39.64
2023-04-06T14:40:37.097Z,39.36
2023-04-06T14:43:04.358Z,39.15
2023-04-06T14:45:33.722Z,39.86
2023-04-06T14:48:00.218Z,40.56
2023-04-06T14:50:26.731Z,40.38
2023-04-06T14:52:56.232Z,40.68
2023-04-06T14:55:22.768Z,40.10
2023-04-06T14:57:49.245Z,39.13
2023-04-06T15:00:16.287Z,39.82
2023-04-06T15:02:44.195Z,40.69
2023-04-06T15:05:11.921Z,40.28
2023-04-06T15:07:38.387Z,40.48
2023-04-06T15:10:10.785Z,40.45
2023-04-06T15:12:39.123Z,40.21
2023-04-06T15:15:06.267Z,40.81
2023-04-06T15:17:32.873Z,41.14
2023-04-06T15:19:59.385Z,41.37
2023-04-06T15:22:25.948Z,41.40
2023-04-06T15:24:52.423Z,41.33
2023-04-06T15:27:18.969Z,41.21
2023-04-06T15:29:45.691Z,41.26
2023-04-06T15:32:12.439Z,41.24
2023-04-06T15:34:38.895Z,41.08
2023-04-06T15:37:06.147Z,40.90
2023-04-06T15:39:33.303Z,41.21
2023-04-06T15:42:00.258Z,41.76
2023-04-06T15:44:27.075Z,41.53
2023-04-06T15:46:53.904Z,41.74
2023-04-06T15:49:20.839Z,41.55
2023-04-06T15:51:48.843Z,41.61
2023-04-06T15:54:21.077Z,41.20
2023-04-06T15:56:49.630Z,40.21
2023-04-06T15:59:16.826Z,40.46
2023-04-06T16:01:43.647Z,41.05
2023-04-06T16:04:11.679Z,41.17
2023-04-06T16:06:38.315Z,41.48
2023-04-06T16:09:04.815Z,41.68
2023-04-06T16:11:32.575Z,42.08
2023-04-06T16:13:59.589Z,42.18
2023-04-06T16:16:27.185Z,42.25
2023-04-06T16:18:53.846Z,42.87
2023-04-06T16:21:20.375Z,42.72
2023-04-06T16:23:50.839Z,42.85
2023-04-06T16:26:18.113Z,42.05
2023-04-06T16:28:45.057Z,41.87
2023-04-06T16:31:22.104Z,42.36
2023-04-06T16:33:56.267Z,42.92
2023-04-06T16:36:27.539Z,42.86
2023-04-06T16:38:58.506Z,42.75
2023-04-06T16:41:26.556Z,42.57
2023-04-06T16:43:53.887Z,42.41
2023-04-06T16:46:23.624Z,42.58
2023-04-06T16:48:50.115Z,43.18
2023-04-06T16:51:16.713Z,43.06
2023-04-06T16:53:43.263Z,43.12
2023-04-06T16:58:41.230Z,43.25
2023-04-06T17:01:07.808Z,43.67
2023-04-06T17:03:35.266Z,43.68
2023-04-06T17:06:01.920Z,43.91
2023-04-06T17:08:28.458Z,44.10
2023-04-06T17:11:02.654Z,44.38
2023-04-06T17:13:30.325Z,44.71
2023-04-06T17:15:56.798Z,44.72
2023-04-06T17:18:23.274Z,44.41
2023-04-06T17:20:49.720Z,44.64
2023-04-06T17:23:16.689Z,45.31
2023-04-06T17:25:43.163Z,45.15
2023-04-06T17:28:09.831Z,45.54
2023-04-06T17:30:36.334Z,46.24
2023-04-06T17:33:02.969Z,46.41
2023-04-06T17:35:29.474Z,46.44
2023-04-06T17:37:56.255Z,46.58
2023-04-06T17:40:22.730Z,46.94
2023-04-06T17:42:49.191Z,47.18
2023-04-06T17:45:15.974Z,47.60
2023-04-06T17:47:42.464Z,47.51
2023-04-06T17:50:12.561Z,47.45
2023-04-06T17:52:39.042Z,47.50
2023-04-06T17:55:05.924Z,47.55
2023-04-06T17:57:33.563Z,47.36
2023-04-06T18:00:00.054Z,47.38
2023-04-06T18:02:26.714Z,47.54
2023-04-06T18:04:53.695Z,47.62
2023-04-06T18:07:20.212Z,47.61
2023-04-06T18:09:47.358Z,47.88
2023-04-06T18:12:13.878Z,47.88
2023-04-06T18:14:41.425Z,47.83
2023-04-06T18:17:08.159Z,47.93
2023-04-06T18:19:34.702Z,47.55
2023-04-06T18:22:01.258Z,47.24
2023-04-06T18:24:41.310Z,47.38
2023-04-06T18:27:10.376Z,47.63
2023-04-06T18:29:37.198Z,47.63
2023-04-06T18:32:04.232Z,47.77
2023-04-06T18:34:30.756Z,47.67
2023-04-06T18:36:57.536Z,47.94
2023-04-06T18:39:24.009Z,48.15
2023-04-06T18:41:50.486Z,48.00
2023-04-06T18:44:16.968Z,47.83
2023-04-06T18:46:47.344Z,48.13
2023-04-06T18:49:13.861Z,48.27
2023-04-06T18:51:42.855Z,48.28
2023-04-06T18:54:09.367Z,47.86
2023-04-06T18:56:37.136Z,47.96
2023-04-06T18:59:03.836Z,47.99
2023-04-06T19:01:31.769Z,47.81
2023-04-06T19:03:59.811Z,47.83
2023-04-06T19:06:27.476Z,48.22
2023-04-06T19:08:54.116Z,48.32
2023-04-06T19:11:23.258Z,48.09
2023-04-06T19:13:53.161Z,48.14
2023-04-06T19:16:19.700Z,47.99
2023-04-06T19:18:46.248Z,47.82
2023-04-06T19:21:16.953Z,47.94
2023-04-06T19:23:45.338Z,48.47
2023-04-06T19:26:12.975Z,48.03
2023-04-06T19:28:39.901Z,48.03
2023-04-06T19:31:08.696Z,47.88
2023-04-06T19:33:36.040Z,48.17
2023-04-06T19:36:03.018Z,48.00
2023-04-06T19:38:30.268Z,48.00
2023-04-06T19:40:56.914Z,48.18
2023-04-06T19:43:23.370Z,48.53
2023-04-06T19:45:49.939Z,48.21
2023-04-06T19:48:16.418Z,48.22
2023-04-06T19:50:46.465Z,47.90
2023-04-06T19:53:13.293Z,48.08
2023-04-06T19:55:40.163Z,48.08
2023-04-06T19:58:06.982Z,47.99
2023-04-06T20:00:33.657Z,48.13
2023-04-06T20:03:00.378Z,48.24
2023-04-06T20:05:26.979Z,48.35
2023-04-06T20:07:53.537Z,48.76
2023-04-06T20:10:19.998Z,49.01
2023-04-06T20:12:46.767Z,48.76
2023-04-06T20:15:13.580Z,48.69
2023-04-06T20:17:40.220Z,48.58
2023-04-06T20:20:07.271Z,48.25
2023-04-06T20:22:33.810Z,48.81
2023-04-06T20:25:00.329Z,48.95
2023-04-06T20:27:30.357Z,48.71
2023-04-06T20:29:56.856Z,48.85
2023-04-06T20:32:23.662Z,49.67
2023-04-06T20:34:50.667Z,50.15
2023-04-06T20:37:17.687Z,50.70
2023-04-06T20:39:48.343Z,50.83
2023-04-06T20:42:14.841Z,51.30
2023-04-06T20:44:41.655Z,51.50
2023-04-06T20:47:08.141Z,51.64
2023-04-06T20:49:34.637Z,51.76
2023-04-06T20:52:02.910Z,51.90
2023-04-06T20:54:29.674Z,52.03
2023-04-06T20:57:00.413Z,52.58
2023-04-06T20:59:27.881Z,52.55
2023-04-06T21:01:54.581Z,52.50
2023-04-06T21:04:22.486Z,52.67
2023-04-06T21:06:49.806Z,53.13
2023-04-06T21:09:16.790Z,53.11
2023-04-06T21:11:43.338Z,52.43
2023-04-06T21:14:09.806Z,52.58
2023-04-06T21:16:36.683Z,52.94
2023-04-06T21:19:03.449Z,52.74
2023-04-06T21:21:30.188Z,53.96
2023-04-06T21:23:58.338Z,54.13
2023-04-06T21:26:24.852Z,54.82
2023-04-06T21:28:51.377Z,54.72
2023-04-06T21:31:19.784Z,55.76
2023-04-06T21:33:46.842Z,57.51
2023-04-06T21:36:16.428Z,57.24
2023-04-06T21:38:43.002Z,57.48
2023-04-06T21:41:09.472Z,57.50
2023-04-06T21:43:36.015Z,57.67
2023-04-06T21:46:02.895Z,57.43
2023-04-06T21:48:29.381Z,56.26
2023-04-06T21:50:55.928Z,56.10
2023-04-06T21:53:22.379Z,56.83
2023-04-06T21:55:49.215Z,57.40
2023-04-06T21:58:15.978Z,57.80
2023-04-06T22:00:42.727Z,57.71
2023-04-06T22:03:09.652Z,57.39
2023-04-06T22:05:38.290Z,57.55
2023-04-06T22:08:04.903Z,57.54
2023-04-06T22:10:34.339Z,58.31
2023-04-06T22:13:00.886Z,58.97
2023-04-06T22:15:27.361Z,58.93
2023-04-06T22:17:53.941Z,59.38
2023-04-06T22:20:24.845Z,60.08
2023-04-06T22:23:00.822Z,59.85
2023-04-06T22:25:27.399Z,60.04
2023-04-06T22:27:53.893Z,59.61
2023-04-06T22:30:23.362Z,58.68
2023-04-06T22:32:49.863Z,59.56
2023-04-06T22:35:16.435Z,59.87
2023-04-06T22:37:43.412Z,60.01
2023-04-06T22:40:13.762Z,60.78
2023-04-06T22:42:42.129Z,60.21
2023-04-06T22:45:11.955Z,59.63
2023-04-06T22:47:39.805Z,59.23
2023-04-06T22:50:10.225Z,58.98
2023-04-06T22:52:36.932Z,58.84
2023-04-06T22:55:03.505Z,58.96
2023-04-06T22:57:33.269Z,58.90
2023-04-06T23:00:00.559Z,58.41
2023-04-06T23:02:31.628Z,59.07
2023-04-06T23:05:02.202Z,59.96
2023-04-06T23:07:32.812Z,58.82
2023-04-06T23:10:02.144Z,57.56
2023-04-06T23:12:37.031Z,55.94
2023-04-06T23:15:03.738Z,56.28
2023-04-06T23:17:30.410Z,56.25
2023-04-06T23:19:56.943Z,56.42
2023-04-06T23:22:23.466Z,56.31
2023-04-06T23:24:50.118Z,56.39
2023-04-06T23:27:16.597Z,56.13
2023-04-06T23:29:45.958Z,56.38
2023-04-06T23:32:12.514Z,56.73
2023-04-06T23:34:39.042Z,59.47
2023-04-06T23:37:05.752Z,60.83
2023-04-06T23:39:32.266Z,61.63
2023-04-06T23:41:59.315Z,61.63
2023-04-06T23:44:32.502Z,62.42
2023-04-06T23:46:59.037Z,63.38
2023-04-06T23:49:26.440Z,64.19
2023-04-06T23:51:52.890Z,64.74
2023-04-06T23:54:22.445Z,64.51
2023-04-06T23:56:50.577Z,64.46
2023-04-06T23:59:17.119Z,64.33
